ADDS METAR Data INFO
IDs: Format: Raw Decoded Include TAF

Data at: 0231 UTC 22 Jul 2017

KTME 220215Z AUTO 17006KT 10SM CLR 29/24 A2997 RMK AO2
KTME 220155Z AUTO 17007KT 10SM CLR 29/24 A2997 RMK AO2
KTME 220135Z AUTO 18007KT 9SM CLR 29/23 A2997 RMK AO2
KTME 220115Z AUTO 17006KT 9SM CLR 29/23 A2997 RMK AO2
KTME 220055Z AUTO 17009KT 10SM CLR 30/22 A2995 RMK AO2
KTME 220035Z AUTO 19009KT 10SM FEW060 30/23 A2995 RMK AO2
KTME 220015Z AUTO 20009KT 10SM FEW060 30/24 A2995 RMK AO2
KTME 212355Z AUTO 21013G17KT 8SM CLR 32/24 A2995 RMK AO2
KTME 212335Z AUTO 22016G20KT 9SM CLR 33/24 A2995 RMK AO2
KTME 212315Z AUTO 21011KT 10SM FEW050 35/24 A2994 RMK AO2
KTME 212255Z AUTO 19007KT 10SM CLR 36/23 A2994 RMK AO2
KTME 212235Z AUTO 20006KT 10SM CLR 35/23 A2994 RMK AO2
KTME 212215Z AUTO 20007KT 10SM CLR 35/22 A2995 RMK AO2
KTME 212155Z AUTO 19010KT 10SM CLR 35/22 A2995 RMK AO2
KTME 212135Z AUTO 20009KT 10SM CLR 36/22 A2996 RMK AO2
KTME 212115Z AUTO 19004KT 10SM CLR 36/22 A2997 RMK AO2
KTME 212055Z AUTO 17004KT 10SM FEW050 35/22 A2998 RMK AO2
KTME 212035Z AUTO 20008KT 9SM SCT050 34/23 A2999 RMK AO2
KTME 212015Z AUTO 00000KT 10SM CLR 34/23 A2999 RMK AO2
KTME 211955Z AUTO 21007KT 10SM CLR 34/23 A3000 RMK AO2
KTME 211935Z AUTO 22006KT 10SM CLR 35/23 A3001 RMK AO2
KTME 211915Z AUTO 00000KT 9SM CLR 34/23 A3002 RMK AO2
KTME 211855Z AUTO 27004KT 9SM CLR 34/23 A3002 RMK AO2
KTME 211835Z AUTO 19006KT 10SM FEW041 34/22 A3003 RMK AO2
KTME 211815Z AUTO 22004KT 9SM FEW041 34/23 A3003 RMK AO2
KTME 211755Z AUTO 20006KT 9SM FEW041 34/23 A3004 RMK AO2
KTME 211735Z AUTO 21004KT 9SM FEW039 33/23 A3005 RMK AO2
KTME 211715Z AUTO 17003KT 9SM CLR 33/22 A3005 RMK AO2
KTME 211655Z AUTO 00000KT 9SM CLR 32/23 A3005 RMK AO2
KTME 211635Z AUTO 24004KT 8SM CLR 32/23 A3006 RMK AO2
KTME 211615Z AUTO 24003KT 9SM FEW027 32/23 A3006 RMK AO2
KTME 211555Z AUTO 21003KT 8SM SCT024 32/24 A3007 RMK AO2
KTME 211535Z AUTO 20004KT 9SM SCT020 31/24 A3007 RMK AO2
KTME 211515Z AUTO 23006KT 8SM FEW020 30/25 A3006 RMK AO2
KTME 211455Z AUTO 23007KT 8SM CLR 30/25 A3006 RMK AO2
KTME 211435Z AUTO 22006KT 8SM FEW014 30/25 A3007 RMK AO2
KTME 211415Z AUTO 22005KT 8SM FEW014 30/26 A3007 RMK AO2
KTME 211355Z AUTO 00000KT 7SM CLR 29/26 A3008 RMK AO2
KTME 211335Z AUTO 29003KT 7SM CLR 29/26 A3007 RMK AO2
KTME 211315Z AUTO 24003KT 7SM FEW019 28/25 A3007 RMK AO2
KTME 211255Z AUTO 00000KT 7SM SCT017 27/25 A3006 RMK AO2
KTME 211235Z AUTO 00000KT 6SM BR SCT017 25/25 A3006 RMK AO2
KTME 211215Z AUTO 00000KT 6SM BR FEW014 SCT020 24/24 A3005 RMK AO2
KTME 211155Z AUTO 00000KT 5SM BR SCT018 24/24 A3004 RMK AO2
KTME 211135Z AUTO 00000KT 7SM FEW018 24/24 A3004 RMK AO2
KTME 211115Z AUTO 00000KT 7SM CLR 24/24 A3003 RMK AO2
KTME 211055Z AUTO 00000KT 8SM FEW018 25/24 A3003 RMK AO2
KTME 211035Z AUTO 00000KT 8SM BKN018 24/24 A3002 RMK AO2
KTME 211015Z AUTO 11003KT 5SM BR BKN018 24/24 A3002 RMK AO2
KTME 210955Z AUTO 12003KT 8SM CLR 24/24 A3002 RMK AO2
KTME 210935Z AUTO 00000KT 9SM CLR 25/24 A3001 RMK AO2
KTME 210915Z AUTO 24003KT 9SM CLR 25/24 A3001 RMK AO2
KTME 210855Z AUTO 22003KT 8SM CLR 25/24 A3002 RMK AO2
KTME 210835Z AUTO 23004KT 8SM CLR 25/25 A3002 RMK AO2
KTME 210815Z AUTO 00000KT 9SM CLR 25/24 A3003 RMK AO2
KTME 210755Z AUTO 00000KT 8SM CLR 25/24 A3003 RMK AO2
KTME 210735Z AUTO 00000KT 8SM CLR 25/24 A3003 RMK AO2
KTME 210715Z AUTO 18003KT 10SM CLR 25/24 A3004 RMK AO2
KTME 210655Z AUTO 19003KT 9SM CLR 25/24 A3004 RMK AO2
KTME 210635Z AUTO 18003KT 9SM CLR 25/24 A3004 RMK AO2
KTME 210615Z AUTO 16003KT 8SM CLR 25/24 A3005 RMK AO2
KTME 210555Z AUTO 00000KT 10SM CLR 26/24 A3005 RMK AO2
KTME 210535Z AUTO 20004KT 10SM CLR 26/24 A3005 RMK AO2
KTME 210515Z AUTO 21005KT 9SM CLR 26/24 A3005 RMK AO2
KTME 210455Z AUTO 19005KT 10SM CLR 26/24 A3005 RMK AO2
KTME 210435Z AUTO 19004KT 10SM CLR 26/24 A3005 RMK AO2
KTME 210415Z AUTO 18004KT 10SM CLR 27/24 A3005 RMK AO2
KTME 210355Z AUTO 20005KT 10SM CLR 27/24 A3005 RMK AO2
KTME 210335Z AUTO 19006KT 10SM CLR 27/24 A3005 RMK AO2
KTME 210315Z AUTO 18005KT 10SM CLR 27/24 A3004 RMK AO2
KTME 210255Z AUTO 19006KT 10SM CLR 28/24 A3003 RMK AO2
KTME 210235Z AUTO 18007KT 10SM CLR 28/24 A3003 RMK AO2
KTME 210215Z AUTO 19006KT 10SM SCT060 28/24 A3002 RMK AO2
KTME 210155Z AUTO 19005KT 10SM FEW060 28/24 A3002 RMK AO2
KTME 210135Z AUTO 18007KT 10SM SCT060 29/24 A3002 RMK AO2
KTME 210115Z AUTO 18008KT 10SM BKN060 30/24 A3001 RMK AO2
KTME 210055Z AUTO 17008KT 10SM CLR 30/23 A3001 RMK AO2
KTME 210035Z AUTO 20012KT 9SM CLR 31/23 A3001 RMK AO2
KTME 210015Z AUTO 16010KT 10SM FEW060 33/23 A3001 RMK AO2
KTME 202355Z AUTO 18008KT 10SM SCT060 33/23 A3001 RMK AO2
KTME 202335Z AUTO 20009KT 10SM SCT060 33/24 A3000 RMK AO2
KTME 202315Z AUTO 20012G18KT 10SM BKN060 36/24 A3001 RMK AO2
KTME 202255Z AUTO 16004KT 9SM FEW060 SCT070 36/22 A3000 RMK AO2
KTME 202235Z AUTO 22004KT 10SM CLR 37/22 A3001 RMK AO2
KTME 202215Z AUTO 00000KT 10SM CLR 37/20 A3003 RMK AO2
KTME 202155Z AUTO 00000KT 10SM CLR 36/20 A3002 RMK AO2
KTME 202135Z AUTO 00000KT 10SM CLR 36/21 A3003 RMK AO2
KTME 202115Z AUTO 18003KT 9SM CLR 36/21 A3004 RMK AO2
KTME 202055Z AUTO 17003KT 10SM CLR 35/22 A3005 RMK AO2
KTME 202035Z AUTO 20006KT 9SM CLR 35/23 A3006 RMK AO2
KTME 202015Z AUTO 22005KT 9SM CLR 35/23 A3007 RMK AO2
KTME 201955Z AUTO 21005KT 9SM CLR 35/23 A3007 RMK AO2
KTME 201935Z AUTO 33003KT 9SM CLR 34/23 A3008 RMK AO2
KTME 201915Z AUTO 22004KT 9SM CLR 34/23 A3009 RMK AO2
KTME 201855Z AUTO 22003KT 9SM CLR 34/23 A3009 RMK AO2
KTME 201835Z AUTO 00000KT 9SM CLR 34/23 A3010 RMK AO2
KTME 201815Z AUTO 36003KT 9SM CLR 33/23 A3011 RMK AO2
KTME 201755Z AUTO 21005KT 8SM CLR 34/23 A3011 RMK AO2
KTME 201735Z AUTO 18003KT 9SM CLR 33/23 A3012 RMK AO2
KTME 201715Z AUTO 30005KT 9SM FEW035 33/24 A3013 RMK AO2
KTME 201655Z AUTO 30003KT 9SM CLR 33/23 A3014 RMK AO2
KTME 201635Z AUTO 27004KT 9SM FEW030 32/24 A3014 RMK AO2
KTME 201615Z AUTO 00000KT 9SM FEW026 33/24 A3014 RMK AO2
KTME 201555Z AUTO 28005KT 9SM FEW026 32/25 A3015 RMK AO2
KTME 201535Z AUTO 29005KT 9SM SCT022 31/25 A3015 RMK AO2
KTME 201515Z AUTO 26003KT 9SM BKN020 30/25 A3015 RMK AO2
KTME 201455Z AUTO 27005KT 9SM SCT018 31/25 A3015 RMK AO2
KTME 201435Z AUTO 25004KT 8SM FEW016 30/25 A3016 RMK AO2